Aérodrome :
LOGIN :

S'inscrire | Disclaimer

   EN    FR    IT 

 










Légende :    VFR   VFR Marginal   IFR   IFR Intensif   IFR Très Intensif
Visi : 
Plafond : 
>= 8 km
>= 3000ft
5 à 8 km
1000 à 3000 ft
1500m à 5 km
500 à 1000 ft
800 à 1500m
200 à 500 ft
< 800m
< 200 ft
Symboles :   Orages  Brouillard  Fortes neiges  Fortes précipitations  Vent > 20 kt
SIGMETs :   Divers  Orages  Givrage  Turbulence  Onde Orograph.  Cendres Volcan.







- Altitude de l'aérodrome : 782 ft
- Code IATA : BGY


LIME - Orio al Serio International - Bergamo

DERNIER METAR :
  • 251420Z 10007KT 030V130 8000 SCT030 BKN070 16/10 Q1011 NOSIG

METARs EXPIRÉS :
  • 251350Z 11007KT 360V150 8000 SCT030 BKN070 17/10 Q1011 NOSIG
  • 251320Z 11007KT 010V140 7000 SCT025 SCT070 16/10 Q1011 NOSIG
  • 251250Z VRB05KT 7000 SCT002 SCT070 17/10 Q1012 NOSIG
  • 251220Z 10004KT 020V150 6000 SCT020 SCT070 17/10 Q1012 NOSIG
  • 251150Z 06004KT 010V130 6000 SCT020 SCT070 16/10 Q1013 NOSIG

TAF TAF LIME
Valide du 25 à 12h jusqu'au 26 à 12h UTC


251100Z 2512/2612 VRB05KT 4000 BR SCT025 BKN060
TEMPO 2602/2612 2000 RA
Pas de NOTAMs connus pour ce terrain.



MET'MAP, la Météo Aéronautique d'un coup d'oeil ! - Copyright ORBIFLY Décembre 2007 - Disclaimer

ORBIFLY MET'MAP TEAM :

Programmation & Développement : Alexandra Zaïnal
Conception & Développement : Baudouin d'Aumeries
Co-Programmation & Développement : Marc-Olivier Méhu
Soutien technique & logistique : Manuel Goepfert

Contact : metmap@orbifly.com




SOURCES & CREDITS :

   NOAA